Shawnee Mission, KS (66224)

6:45 PM CST on November 21, 2014 (GMT -0600)
KKSLEAWO2 | Change Station
CLOSE
Current Station
Personal Weather Station
Location: Leawood, KS
Elevation: 940 ft
Nearby Weather Stations

Elev 940 ft 38.90 °N, 94.63 °W | Updated 21 seconds ago

Overcast
Overcast
42.8 °F
Feels Like 43 °F
N
1.9
Wind Variable Wind from South
Gusts 3.1 mph

Today
High -- | Low -- °F
--% Chance of Precip.
Yesterday
High -- | Low -- °F
Precip. -- in
7:07 AM 5:00 PM
Waning Crescent, 0% visible
Pressure 30.10 in
Visibility 10.0 miles
Clouds Overcast 1900 ft
Windchill 43 °F
Dew Point 40 °F
Humidity 91%
Rainfall 0.02 in
Snow Depth Not available.
UV 0 out of 12
Pollen .10 out of 12
Air Quality Not available.
Flu Activity Not available.
METAR KOJC 212353Z 14007KT 10SM OVC019 07/04 A3007 RMK AO2 SLP191 60006 T00670044 10067 20050 58005

More Conditions Fewer Conditions

Pressure 30.10 in
Visibility 10.0 miles
Clouds Overcast 1900 ft
Windchill 43 °F
Dew Point 40 °F
Humidity 91%
Rainfall 0.02 in
Snow Depth Not available.
UV 0 out of 12
Pollen .10 out of 12
Air Quality Not available.
Flu Activity Not available.
METAR KOJC 212353Z 14007KT 10SM OVC019 07/04 A3007 RMK AO2 SLP191 60006 T00670044 10067 20050 58005

More Conditions Fewer Conditions

10-Day Weather Forecast

Almanac

Astronomy

Nov. 21, 2014 Rise Set
Actual Time
Civil Twilight
Nautical Twilight
Astronomical Twilight
Moon
Length of Visible Light
Length of Day
Tomorrow will be .
, % of the Moon is Illuminated

Today's Extremes

State Highs State Lows

Community

WunderPhotos

Upload Photos

1,772,745 photos uploaded!

WunderBlogs® & News

Nearby

Air Quality

  Air Quality AQ Index Pollutant
Not available.

Snow Depth

Station Depth Elevation

Earthquake Activity

City Distance Mag. Time & Date
Minimum magnitude displayed is 2.5.

Coastal Water Temperatures

Place Temperature

Nearby Weather Stations